Time;durP1;ratioP1;P1;durP2;ratioP2;P2;SDS_P1;SDS_P2;PMS_P1;PMS_P2;Temp;Humidity;BMP_temperature;BMP_pressure;BME280_temperature;BME280_humidity;BME280_pressure;Samples;Min_cycle;Max_cycle;Signal;HPM_P1;HPM_P2
2023/04/10 00:00:18;;;;;;;11.32;8.80;;;;;;;9.74;81.14;101917.84;5088081;28;20066;-78
2023/04/10 00:02:43;;;;;;;11.93;8.75;;;;;;;9.64;82.01;101904.63;5091130;28;20087;-74
2023/04/10 00:05:09;;;;;;;13.98;8.50;;;;;;;9.68;79.77;101908.63;5091658;28;20402;-77
2023/04/10 00:07:34;;;;;;;9.95;8.40;;;;;;;9.70;85.97;101901.16;5093114;28;20077;-78
2023/04/10 00:10:00;;;;;;;9.13;8.23;;;;;;;9.63;79.60;101889.47;5091417;28;20077;-78
2023/04/10 00:12:26;;;;;;;9.75;8.48;;;;;;;9.64;79.95;101893.81;5090698;28;20490;-77
2023/04/10 00:14:51;;;;;;;9.40;8.40;;;;;;;9.62;83.20;101885.06;5083326;28;20472;-76
2023/04/10 00:17:16;;;;;;;9.25;7.82;;;;;;;9.61;79.60;101880.69;5088448;28;20063;-79
2023/04/10 00:19:41;;;;;;;9.73;8.10;;;;;;;9.70;79.34;101884.09;5087724;28;20035;-76
2023/04/10 00:22:07;;;;;;;10.95;8.35;;;;;;;9.59;79.42;101880.06;5090310;28;20440;-76
2023/04/10 00:24:33;;;;;;;9.77;8.13;;;;;;;9.63;76.53;101875.94;5092805;28;20046;-76
2023/04/10 00:26:58;;;;;;;9.98;8.48;;;;;;;9.56;79.82;101866.94;5092355;28;20028;-78
2023/04/10 00:29:24;;;;;;;10.60;7.90;;;;;;;9.66;80.35;101870.16;5089463;28;20027;-74
2023/04/10 00:31:49;;;;;;;10.02;8.85;;;;;;;9.60;80.91;101868.19;5092801;28;20020;-76
2023/04/10 00:34:15;;;;;;;9.25;7.97;;;;;;;9.56;77.67;101861.53;5092550;28;20039;-76
2023/04/10 00:36:40;;;;;;;11.63;8.18;;;;;;;9.61;78.46;101858.25;5091180;28;20476;-75
2023/04/10 00:39:07;;;;;;;9.15;8.05;;;;;;;9.53;83.39;101861.91;5090867;28;20036;-76
2023/04/10 00:41:35;;;;;;;10.52;8.05;;;;;;;9.53;86.00;101860.03;5090635;28;20075;-76
2023/04/10 00:44:01;;;;;;;9.02;8.02;;;;;;;9.53;81.49;101856.50;5090600;28;20027;-75
2023/04/10 00:46:26;;;;;;;10.93;7.85;;;;;;;9.52;82.36;101850.25;5091253;28;20027;-75
2023/04/10 00:48:55;;;;;;;10.65;8.10;;;;;;;9.54;78.79;101848.22;5082430;28;20452;-76
2023/04/10 00:51:21;;;;;;;9.05;8.15;;;;;;;9.52;76.50;101852.13;5072358;28;20028;-79
2023/04/10 00:53:49;;;;;;;9.45;7.70;;;;;;;9.47;80.99;101851.88;5070731;28;20371;-75
2023/04/10 00:56:18;;;;;;;9.82;7.80;;;;;;;9.49;75.53;101844.41;5072121;28;20020;-78
2023/04/10 00:58:44;;;;;;;8.77;7.88;;;;;;;9.48;77.13;101848.13;5078671;28;20036;-75
2023/04/10 01:01:10;;;;;;;9.40;7.72;;;;;;;9.47;79.92;101850.00;5087325;28;20042;-76
2023/04/10 01:03:37;;;;;;;9.57;7.68;;;;;;;9.45;76.78;101848.50;5090964;28;20451;-77
2023/04/10 01:06:29;;;;;;;9.90;7.63;;;;;;;9.48;82.00;101850.84;5090582;28;20378;-74
2023/04/10 01:09:09;;;;;;;9.88;7.95;;;;;;;9.42;78.39;101838.09;5090510;28;20035;-76
2023/04/10 01:11:48;;;;;;;8.73;7.65;;;;;;;9.45;79.67;101851.22;5092335;28;20032;-75
2023/04/10 12:41:33;;;;;;;3.55;3.10;;;;;;;15.52;53.38;101136.06;5083460;27;20825;-74
2023/04/10 12:44:13;;;;;;;3.05;2.75;;;;;;;15.49;54.98;101135.72;5036608;28;20055;-74
2023/04/10 12:46:39;;;;;;;4.25;3.05;;;;;;;15.48;53.67;101132.16;5049553;28;20086;-74
2023/04/10 12:49:25;;;;;;;3.25;2.70;;;;;;;15.47;54.09;101133.22;5049406;28;20476;-74
2023/04/10 12:51:53;;;;;;;4.82;2.88;;;;;;;15.45;52.30;101120.94;5054529;28;20074;-75
2023/04/10 12:54:37;;;;;;;3.85;3.00;;;;;;;15.39;54.69;101123.59;5067809;28;20029;-75
2023/04/10 12:57:21;;;;;;;;;;;;;;;;;;;;;
2023/04/10 12:59:47;;;;;;;3.83;2.50;;;;;;;15.39;52.73;101115.41;5066605;28;20033;-74
2023/04/10 13:02:30;;;;;;;5.20;2.80;;;;;;;15.38;54.40;101112.94;5064007;28;20144;-77
2023/04/10 13:04:58;;;;;;;5.05;2.90;;;;;;;15.36;53.54;101115.91;5069059;28;20497;-75
2023/04/10 13:07:38;;;;;;;6.63;3.15;;;;;;;15.36;52.98;101104.19;5051287;28;20055;-80
2023/04/10 13:10:07;;;;;;;5.38;2.63;;;;;;;15.33;52.86;101100.03;5048360;28;20033;-77
2023/04/10 13:15:26;;;;;;;4.85;2.80;;;;;;;15.33;52.41;101083.69;4997567;28;20121;-76
2023/04/10 13:18:09;;;;;;;5.35;2.50;;;;;;;15.33;53.34;101072.78;4989257;28;20129;-74
2023/04/10 13:20:36;;;;;;;5.22;2.67;;;;;;;15.35;52.99;101088.88;4978534;28;20035;-75
2023/04/10 13:23:04;;;;;;;3.45;2.88;;;;;;;15.33;52.64;101067.31;4987613;28;20038;-77
2023/04/10 13:25:35;;;;;;;4.45;2.60;;;;;;;15.36;52.85;101057.84;4990535;28;20406;-74
2023/04/10 13:28:00;;;;;;;3.70;3.00;;;;;;;15.37;52.50;101062.22;5052129;28;20037;-74
2023/04/10 13:30:27;;;;;;;4.57;2.92;;;;;;;15.35;53.70;101058.91;5048719;28;20388;-74
2023/04/10 13:32:55;;;;;;;3.83;3.00;;;;;;;15.35;52.22;101048.84;5030565;28;20029;-74
2023/04/10 13:35:21;;;;;;;3.38;2.90;;;;;;;15.36;52.84;101049.66;5030221;28;20481;-74
2023/04/10 13:37:46;;;;;;;3.10;2.78;;;;;;;15.35;53.27;101037.94;5045565;28;20098;-74
2023/04/10 13:40:11;;;;;;;2.92;2.65;;;;;;;15.39;53.54;101025.41;5031432;28;20065;-74
2023/04/10 13:42:37;;;;;;;2.67;2.47;;;;;;;15.39;53.73;101032.78;5048412;28;20047;-75
2023/04/10 13:45:03;;;;;;;4.68;2.50;;;;;;;15.44;53.26;101023.84;5048187;28;20421;-74
2023/04/10 13:47:30;;;;;;;3.47;2.88;;;;;;;15.44;54.98;101012.94;5063111;28;20025;-74
2023/04/10 13:49:55;;;;;;;8.88;2.78;;;;;;;15.48;54.52;101003.19;5048296;28;20033;-74
2023/04/10 13:52:21;;;;;;;3.55;2.63;;;;;;;15.48;56.12;100995.81;5053349;28;20040;-74
2023/04/10 13:54:46;;;;;;;4.18;2.55;;;;;;;15.52;55.23;100993.38;5035269;28;20025;-74
2023/04/10 13:57:11;;;;;;;2.88;2.63;;;;;;;15.52;57.13;100982.47;5024897;28;20310;-74
2023/04/10 13:59:37;;;;;;;4.07;2.50;;;;;;;15.53;56.25;100978.69;5047052;28;20025;-75
2023/04/10 14:02:02;;;;;;;3.35;2.70;;;;;;;15.53;58.46;100974.03;5033223;28;20400;-74
2023/04/10 14:04:27;;;;;;;3.20;2.90;;;;;;;15.48;62.78;100962.28;5037060;28;20040;-74
2023/04/10 14:06:56;;;;;;;2.80;2.40;;;;;;;15.44;59.23;100967.38;5053580;28;20064;-75
2023/04/10 14:09:22;;;;;;;5.57;2.60;;;;;;;15.38;59.29;100965.69;5020891;28;20037;-74
2023/04/10 14:11:47;;;;;;;3.30;2.65;;;;;;;15.31;61.05;100965.88;5034815;28;20021;-75
2023/04/10 14:14:12;;;;;;;3.08;2.80;;;;;;;15.27;58.50;100962.00;5034671;28;20100;-74
2023/04/10 14:16:38;;;;;;;4.80;2.72;;;;;;;15.18;62.08;100956.16;5039808;28;20097;-75
2023/04/10 14:19:12;;;;;;;3.13;2.83;;;;;;;15.15;62.68;100961.31;5034883;28;20037;-76
2023/04/10 14:21:39;;;;;;;3.67;2.63;;;;;;;15.07;61.18;100962.59;5036826;28;20036;-74
2023/04/10 14:24:07;;;;;;;3.00;2.70;;;;;;;14.99;63.68;100958.41;5036802;28;20032;-75
2023/04/10 14:26:32;;;;;;;3.35;2.83;;;;;;;14.93;65.66;100964.84;5043642;28;20079;-74
2023/04/10 14:29:03;;;;;;;2.75;2.53;;;;;;;14.80;69.19;100962.47;5040555;28;20457;-74
2023/04/10 14:31:28;;;;;;;3.17;2.67;;;;;;;14.75;67.87;100971.41;5064896;28;20074;-73
2023/04/10 14:33:53;;;;;;;2.75;2.55;;;;;;;14.68;67.99;100951.69;5047058;28;20041;-73
2023/04/10 14:36:19;;;;;;;2.65;2.30;;;;;;;14.63;64.81;100952.44;5061640;28;20107;-73
2023/04/10 14:38:44;;;;;;;2.65;2.45;;;;;;;14.58;65.74;100948.78;5037013;28;20049;-73
2023/04/10 14:41:10;;;;;;;6.45;2.72;;;;;;;14.45;72.68;100950.78;5032868;28;20053;-74
2023/04/10 14:43:36;;;;;;;3.95;2.40;;;;;;;14.39;72.58;100953.66;5043872;28;20037;-73
2023/04/10 14:46:01;;;;;;;5.07;3.03;;;;;;;14.29;81.34;100944.25;5051175;28;20025;-74
2023/04/10 14:48:26;;;;;;;5.60;2.50;;;;;;;14.23;74.11;100939.78;5052461;28;20037;-73
2023/04/10 14:50:52;;;;;;;3.90;2.70;;;;;;;14.16;76.41;100934.53;5051378;28;20041;-73
2023/04/10 14:53:17;;;;;;;2.92;2.67;;;;;;;14.08;76.55;100936.81;5039653;28;20515;-74
2023/04/10 14:55:42;;;;;;;3.03;2.60;;;;;;;14.07;76.23;100922.41;5050976;28;20461;-74
2023/04/10 14:58:09;;;;;;;3.92;2.83;;;;;;;14.03;74.33;100928.59;5040248;28;20127;-74
2023/04/10 15:00:35;;;;;;;4.13;2.47;;;;;;;14.03;72.69;100923.16;5044577;28;20029;-74
2023/04/10 15:03:01;;;;;;;3.17;2.92;;;;;;;14.00;79.64;100919.00;5040681;28;20044;-73
2023/04/10 15:05:26;;;;;;;2.88;2.60;;;;;;;13.99;76.87;100920.91;5042009;28;20037;-74
2023/04/10 15:07:53;;;;;;;3.10;2.90;;;;;;;13.96;78.98;100902.34;5052334;28;20035;-73
2023/04/10 15:10:18;;;;;;;4.45;3.08;;;;;;;13.97;81.77;100887.66;5057564;28;20452;-75
2023/04/10 15:12:43;;;;;;;4.20;2.85;;;;;;;13.96;84.94;100872.41;5031025;28;20029;-75
2023/04/10 15:15:09;;;;;;;3.10;2.78;;;;;;;13.99;73.31;100874.66;5045657;28;20044;-74
2023/04/10 15:17:34;;;;;;;3.00;2.67;;;;;;;14.02;74.93;100867.88;5051893;28;20040;-73
2023/04/10 15:20:00;;;;;;;2.63;2.40;;;;;;;14.02;74.58;100867.06;5047743;28;20036;-75
2023/04/10 15:22:26;;;;;;;3.70;2.40;;;;;;;14.03;72.28;100863.28;5053920;28;20438;-75
2023/04/10 15:24:51;;;;;;;3.03;2.50;;;;;;;13.99;74.75;100852.91;5026840;28;20122;-75
2023/04/10 15:27:22;;;;;;;5.10;2.92;;;;;;;13.97;80.56;100857.75;5051421;28;20388;-73
2023/04/10 15:29:47;;;;;;;2.60;2.40;;;;;;;13.98;81.02;100845.81;5052279;28;20043;-73
2023/04/10 15:32:13;;;;;;;7.32;3.80;;;;;;;13.95;78.90;100849.00;5047522;28;20028;-74
2023/04/10 15:34:38;;;;;;;7.05;4.57;;;;;;;13.95;78.89;100843.56;5029915;28;20025;-74
2023/04/10 15:37:04;;;;;;;6.63;4.25;;;;;;;13.97;73.80;100838.69;5015679;28;20026;-73
2023/04/10 15:39:32;;;;;;;3.95;2.90;;;;;;;13.99;80.05;100841.16;5023187;28;20044;-76
2023/04/10 15:41:59;;;;;;;3.42;2.90;;;;;;;14.04;71.22;100844.00;5029614;28;20033;-76
2023/04/10 15:44:25;;;;;;;2.47;2.28;;;;;;;14.06;74.76;100843.75;5053010;28;20036;-75
2023/04/10 15:46:51;;;;;;;4.88;2.20;;;;;;;14.07;71.24;100837.22;5064501;28;20028;-75
2023/04/10 15:49:20;;;;;;;2.42;2.22;;;;;;;14.02;72.47;100846.13;5054082;28;20154;-77
2023/04/10 15:52:05;;;;;;;;;;;;;;;;;;;;;
2023/04/10 15:54:34;;;;;;;3.83;2.30;;;;;;;13.93;75.55;100837.53;5047845;28;20048;-76
2023/04/10 15:57:10;;;;;;;3.83;2.42;;;;;;;13.93;74.81;100815.78;5053726;28;20040;-76
2023/04/10 15:59:35;;;;;;;2.83;2.38;;;;;;;13.93;73.33;100826.66;5059566;28;21436;-76
2023/04/10 16:02:01;;;;;;;2.85;2.42;;;;;;;13.97;70.05;100827.81;5043482;28;20036;-76
2023/04/10 16:04:26;;;;;;;3.65;2.60;;;;;;;13.95;72.12;100818.25;5051725;28;20468;-75
2023/04/10 16:06:51;;;;;;;3.85;2.50;;;;;;;13.96;71.49;100815.28;5061336;28;20029;-75
2023/04/10 16:09:17;;;;;;;3.63;2.55;;;;;;;13.96;69.08;100804.41;5053870;28;20032;-75
2023/04/10 16:11:42;;;;;;;2.67;2.47;;;;;;;13.99;70.60;100794.91;5055896;28;20037;-75
2023/04/10 16:14:17;;;;;;;5.97;2.72;;;;;;;13.99;70.94;100795.78;5034425;28;20152;-74
2023/04/10 16:16:43;;;;;;;3.85;2.78;;;;;;;13.97;73.28;100805.25;5034808;28;20434;-74
2023/04/10 16:19:08;;;;;;;3.28;2.50;;;;;;;13.99;71.05;100811.25;5034750;28;20118;-74
2023/04/10 16:21:49;;;;;;;4.03;2.80;;;;;;;13.97;71.65;100808.78;5048935;28;20041;-81
2023/04/10 16:24:15;;;;;;;4.07;2.63;;;;;;;13.96;70.88;100800.88;5025069;28;20460;-76
2023/04/10 16:26:40;;;;;;;3.97;2.70;;;;;;;13.97;71.89;100814.22;5024722;28;20037;-77
2023/04/10 16:29:06;;;;;;;5.00;2.97;;;;;;;13.91;75.55;100819.84;5033576;28;20416;-76
2023/04/10 16:31:34;;;;;;;3.50;3.10;;;;;;;13.86;79.00;100815.16;5040460;28;20029;-76
2023/04/10 16:34:00;;;;;;;3.22;2.92;;;;;;;13.78;85.70;100837.28;5034472;28;20025;-75
2023/04/10 16:36:25;;;;;;;3.90;3.50;;;;;;;13.64;92.70;100828.63;5052794;28;20025;-74
2023/04/10 16:38:51;;;;;;;4.68;3.40;;;;;;;13.54;100.00;100828.47;5034463;28;20082;-75
2023/04/10 16:41:19;;;;;;;3.60;3.30;;;;;;;13.41;100.00;100848.63;5052190;28;20089;-74
2023/04/10 16:43:57;;;;;;;3.75;3.45;;;;;;;13.25;100.00;100845.59;5044086;28;20033;-81
2023/04/10 16:46:23;;;;;;;8.45;3.80;;;;;;;12.97;100.00;100849.13;5034266;28;20044;-78
2023/04/10 16:48:48;;;;;;;5.95;4.00;;;;;;;12.67;100.00;100857.47;5045133;28;20028;-75
2023/04/10 16:51:15;;;;;;;7.20;4.30;;;;;;;12.49;100.00;100859.25;5034898;28;20441;-76
2023/04/10 16:53:40;;;;;;;6.53;4.22;;;;;;;12.33;100.00;100851.81;5032575;28;20032;-79
2023/04/10 16:56:06;;;;;;;7.72;4.35;;;;;;;12.23;100.00;100853.25;5060440;28;20028;-76
2023/04/10 16:58:32;;;;;;;4.75;4.35;;;;;;;12.12;100.00;100856.78;5050306;28;20465;-76
2023/04/10 17:00:58;;;;;;;7.50;4.82;;;;;;;12.03;100.00;100864.44;5047504;28;20061;-74
2023/04/10 17:03:23;;;;;;;6.65;4.30;;;;;;;11.95;100.00;100862.06;5052167;28;20486;-75
2023/04/10 17:05:48;;;;;;;5.60;4.43;;;;;;;11.91;100.00;100860.03;5052152;28;20037;-77
2023/04/10 17:08:14;;;;;;;6.72;4.30;;;;;;;11.79;100.00;100863.56;5026899;28;20025;-75
2023/04/10 17:10:39;;;;;;;6.82;4.43;;;;;;;11.77;100.00;100867.56;5035968;28;20380;-74
2023/04/10 17:13:04;;;;;;;8.65;4.70;;;;;;;11.69;100.00;100864.13;5049890;28;20025;-77
2023/04/10 17:15:30;;;;;;;6.40;4.93;;;;;;;11.64;100.00;100871.28;5052111;28;20453;-74
2023/04/10 17:17:55;;;;;;;8.02;5.30;;;;;;;11.61;100.00;100890.72;5050766;28;20093;-76
2023/04/10 17:20:20;;;;;;;7.75;5.28;;;;;;;11.53;100.00;100872.91;5026632;28;20120;-76
2023/04/10 17:22:46;;;;;;;5.70;5.00;;;;;;;11.48;100.00;100889.84;5042352;28;20025;-76
2023/04/10 17:25:11;;;;;;;6.43;5.22;;;;;;;11.45;100.00;100873.25;5033485;28;20025;-77
2023/04/10 17:27:37;;;;;;;5.75;5.13;;;;;;;11.39;100.00;100863.31;5054573;28;20040;-76
2023/04/10 17:30:02;;;;;;;7.38;5.70;;;;;;;11.40;100.00;100857.69;5036304;28;20038;-75
2023/04/10 17:32:28;;;;;;;7.93;5.47;;;;;;;11.39;100.00;100856.00;5037741;28;20036;-75
2023/04/10 17:34:56;;;;;;;9.52;5.55;;;;;;;11.34;100.00;100870.25;5037743;28;20091;-78
2023/04/10 17:37:21;;;;;;;6.95;5.20;;;;;;;11.38;100.00;100862.47;5037730;28;20040;-74
2023/04/10 17:39:50;;;;;;;8.75;5.47;;;;;;;11.35;100.00;100874.63;5055238;28;21042;-72
2023/04/10 17:42:15;;;;;;;8.60;5.55;;;;;;;11.38;100.00;100878.72;5050616;28;20047;-72
2023/04/10 17:44:41;;;;;;;7.20;6.15;;;;;;;11.35;100.00;100869.22;5061708;28;20473;-74
2023/04/10 17:47:06;;;;;;;9.02;6.25;;;;;;;11.35;100.00;100873.78;5037103;28;20469;-71
2023/04/10 17:49:31;;;;;;;6.88;5.95;;;;;;;11.31;100.00;100872.59;5037427;28;20175;-72
2023/04/10 17:51:57;;;;;;;6.50;5.53;;;;;;;11.29;100.00;100853.03;5054891;28;20052;-72
2023/04/10 17:54:22;;;;;;;7.82;5.18;;;;;;;11.29;100.00;100853.88;5053219;28;20045;-73
2023/04/10 17:56:51;;;;;;;7.03;5.30;;;;;;;11.29;100.00;100842.19;5030579;28;20033;-74
2023/04/10 17:59:16;;;;;;;6.38;5.63;;;;;;;11.30;100.00;100811.34;5038086;28;20067;-75
2023/04/10 18:01:42;;;;;;;6.10;5.25;;;;;;;11.26;100.00;100810.16;5032610;28;20037;-73
2023/04/10 18:04:07;;;;;;;6.95;6.25;;;;;;;11.28;100.00;100802.63;5037286;28;20037;-72
2023/04/10 18:06:32;;;;;;;6.70;5.97;;;;;;;11.27;100.00;100790.13;5053272;28;20065;-72
2023/04/10 18:08:58;;;;;;;6.50;5.47;;;;;;;11.28;100.00;100799.94;5054852;28;20021;-71
2023/04/10 18:11:27;;;;;;;6.25;5.65;;;;;;;11.29;100.00;100798.84;5055085;28;20076;-72
2023/04/10 18:13:52;;;;;;;6.65;5.95;;;;;;;11.30;100.00;100784.25;5055044;28;20120;-72
2023/04/10 18:16:17;;;;;;;9.55;5.45;;;;;;;11.29;100.00;100774.47;5038105;28;20035;-72
2023/04/10 18:18:43;;;;;;;5.97;5.35;;;;;;;11.25;100.00;100766.00;5017160;28;20464;-72
2023/04/10 18:21:09;;;;;;;8.18;4.60;;;;;;;11.23;100.00;100759.16;5019606;28;20029;-73
2023/04/10 18:23:34;;;;;;;7.95;5.20;;;;;;;11.17;100.00;100766.31;5054821;28;20025;-73
2023/04/10 18:26:00;;;;;;;4.50;4.10;;;;;;;11.22;100.00;100771.03;5054772;28;20025;-73
2023/04/10 18:28:26;;;;;;;6.40;3.92;;;;;;;11.21;100.00;100780.22;5036861;28;20029;-72
2023/04/10 18:30:55;;;;;;;7.70;4.32;;;;;;;11.13;100.00;100774.06;5054614;28;20032;-72
2023/04/10 18:33:23;;;;;;;4.97;3.75;;;;;;;11.14;100.00;100775.75;5054237;28;20025;-74
2023/04/10 18:35:57;;;;;;;5.68;4.18;;;;;;;11.13;100.00;100784.91;5036142;28;20029;-74
2023/04/10 18:38:23;;;;;;;4.45;3.90;;;;;;;11.09;100.00;100778.28;5027719;28;20433;-73
2023/04/10 18:40:48;;;;;;;3.30;3.00;;;;;;;11.08;100.00;100775.81;5048470;28;20045;-75
2023/04/10 18:43:13;;;;;;;7.85;4.78;;;;;;;11.13;100.00;100776.78;5036239;28;20170;-74
2023/04/10 18:45:40;;;;;;;3.97;2.95;;;;;;;11.10;100.00;100798.91;5054107;28;20072;-75
2023/04/10 18:48:06;;;;;;;7.43;4.63;;;;;;;11.11;100.00;100778.91;5036624;28;20036;-75
2023/04/10 18:51:00;;;;;;;6.07;3.95;;;;;;;11.11;100.00;100778.91;5020291;28;20033;-76
2023/04/10 18:53:28;;;;;;;3.97;2.65;;;;;;;11.07;100.00;100764.16;5034046;28;20033;-74
2023/04/10 18:55:53;;;;;;;5.32;3.25;;;;;;;11.01;100.00;100784.03;5036087;28;20075;-73
2023/04/10 18:58:20;;;;;;;2.65;2.13;;;;;;;11.02;100.00;100823.63;5033726;28;20029;-72
2023/04/10 19:00:46;;;;;;;3.17;2.33;;;;;;;10.99;100.00;100802.38;5042068;28;20025;-74
2023/04/10 19:03:12;;;;;;;3.05;2.20;;;;;;;10.95;100.00;100787.66;5052672;28;20083;-74
2023/04/10 19:05:38;;;;;;;4.07;2.05;;;;;;;11.01;100.00;100737.19;5053481;28;20100;-72
2023/04/10 19:08:04;;;;;;;4.68;2.08;;;;;;;10.97;100.00;100704.31;5035846;28;20024;-72
2023/04/10 19:10:30;;;;;;;3.05;2.10;;;;;;;10.98;100.00;100723.03;5053919;28;20041;-72
2023/04/10 19:12:56;;;;;;;2.83;2.20;;;;;;;10.93;100.00;100712.09;5018580;28;20044;-72
2023/04/10 19:15:21;;;;;;;2.90;2.17;;;;;;;10.91;100.00;100726.91;5033694;28;20032;-72
2023/04/10 19:17:47;;;;;;;3.22;1.98;;;;;;;10.94;100.00;100757.03;5033849;28;20022;-73
2023/04/10 19:20:12;;;;;;;4.70;2.28;;;;;;;10.93;100.00;100776.22;5015891;28;20033;-72
2023/04/10 19:22:37;;;;;;;3.83;2.28;;;;;;;10.86;100.00;100778.22;5044486;28;20110;-73
2023/04/10 19:25:03;;;;;;;2.22;1.98;;;;;;;10.82;100.00;100769.72;5033529;28;20450;-72
2023/04/10 19:27:28;;;;;;;3.47;2.35;;;;;;;10.82;100.00;100740.78;5033408;28;20113;-72
2023/04/10 19:29:54;;;;;;;4.32;2.70;;;;;;;10.86;100.00;100745.72;5042087;28;20033;-72
2023/04/10 19:32:19;;;;;;;4.88;2.30;;;;;;;10.78;100.00;100769.34;5052887;28;20427;-73
2023/04/10 19:34:50;;;;;;;5.25;2.30;;;;;;;10.81;100.00;100751.84;5053411;28;20040;-73
2023/04/10 19:37:15;;;;;;;5.03;2.17;;;;;;;10.79;100.00;100741.25;5034349;28;20049;-72
2023/04/10 19:39:41;;;;;;;2.67;2.10;;;;;;;10.77;100.00;100721.66;5049838;28;20091;-72
2023/04/10 19:42:06;;;;;;;4.45;2.20;;;;;;;10.73;100.00;100708.84;5033229;28;20030;-72
2023/04/10 19:44:35;;;;;;;3.10;2.10;;;;;;;10.71;100.00;100727.19;5033313;28;20350;-72
2023/04/10 19:47:00;;;;;;;4.53;2.00;;;;;;;10.71;100.00;100738.00;5032939;28;20057;-71
2023/04/10 19:49:25;;;;;;;4.10;2.20;;;;;;;10.71;100.00;100733.41;5055482;28;20507;-74
2023/04/10 19:51:51;;;;;;;5.60;2.45;;;;;;;10.72;100.00;100724.25;5071887;28;20090;-72
2023/04/10 19:54:16;;;;;;;4.07;2.15;;;;;;;10.69;100.00;100732.84;5049424;28;20106;-73
2023/04/10 19:56:44;;;;;;;4.10;2.22;;;;;;;10.69;100.00;100746.38;5049028;28;20026;-75
2023/04/10 19:59:10;;;;;;;6.03;2.40;;;;;;;10.69;100.00;100748.22;5015167;28;20029;-74
2023/04/10 20:01:39;;;;;;;4.65;2.70;;;;;;;10.68;100.00;100744.72;5030518;28;20052;-77
2023/04/10 20:04:04;;;;;;;6.95;2.25;;;;;;;10.66;100.00;100730.59;5015080;28;20029;-72
2023/04/10 20:06:30;;;;;;;5.90;2.30;;;;;;;10.63;100.00;100726.44;5045210;28;20020;-73
2023/04/10 20:08:56;;;;;;;7.13;2.17;;;;;;;10.61;100.00;100722.31;5059064;28;20060;-75
2023/04/10 20:11:29;;;;;;;9.27;2.60;;;;;;;10.63;100.00;100721.03;5034731;28;20460;-74
2023/04/10 20:13:55;;;;;;;6.35;2.40;;;;;;;10.57;100.00;100713.03;5034276;28;20491;-74
2023/04/10 20:16:20;;;;;;;5.65;2.20;;;;;;;10.54;100.00;100705.34;5052291;28;20029;-73
2023/04/10 20:18:46;;;;;;;8.57;2.80;;;;;;;10.57;100.00;100708.41;5034873;28;20524;-75
2023/04/10 20:21:11;;;;;;;6.22;2.90;;;;;;;10.55;100.00;100705.13;5051493;28;20039;-74
2023/04/10 20:23:37;;;;;;;7.13;2.80;;;;;;;10.53;100.00;100703.69;5052225;28;20029;-74
2023/04/10 20:26:02;;;;;;;8.93;2.90;;;;;;;10.52;100.00;100707.44;5034297;28;20039;-74
2023/04/10 20:28:27;;;;;;;10.27;2.83;;;;;;;10.48;100.00;100714.34;5034404;28;20376;-76
2023/04/10 20:30:53;;;;;;;6.05;2.40;;;;;;;10.44;100.00;100722.13;5033492;28;20040;-75
2023/04/10 20:33:18;;;;;;;9.40;3.28;;;;;;;10.44;100.00;100722.94;5034411;28;20070;-76
2023/04/10 20:35:43;;;;;;;6.95;2.95;;;;;;;10.37;100.00;100719.50;5034617;28;20037;-75
2023/04/10 20:38:09;;;;;;;9.93;3.00;;;;;;;10.41;100.00;100730.69;5052486;28;20104;-75
2023/04/10 20:40:34;;;;;;;9.20;3.10;;;;;;;10.42;100.00;100718.81;5033985;28;20056;-75
2023/04/10 20:43:00;;;;;;;7.68;2.90;;;;;;;10.38;100.00;100717.63;5040002;28;20025;-75
2023/04/10 20:45:25;;;;;;;8.77;2.88;;;;;;;10.39;100.00;100720.09;5066751;28;20047;-74
2023/04/10 20:47:50;;;;;;;6.40;3.00;;;;;;;10.35;100.00;100724.28;5016206;28;20083;-75
2023/04/10 20:50:16;;;;;;;9.13;3.17;;;;;;;10.34;100.00;100725.38;5032213;28;20030;-75
2023/04/10 20:52:47;;;;;;;7.63;2.88;;;;;;;10.30;100.00;100710.59;5048932;28;20026;-75
2023/04/10 20:55:12;;;;;;;11.40;3.50;;;;;;;10.30;100.00;100707.91;5049663;28;20380;-73
2023/04/10 20:57:37;;;;;;;9.02;3.20;;;;;;;10.26;100.00;100704.00;5050410;28;20037;-72
2023/04/10 21:00:03;;;;;;;7.93;3.20;;;;;;;10.24;100.00;100704.22;5050829;28;20040;-73
2023/04/10 21:02:28;;;;;;;10.48;3.65;;;;;;;10.21;100.00;100711.97;5033128;28;20048;-72
2023/04/10 21:04:54;;;;;;;8.70;3.70;;;;;;;10.16;100.00;100706.41;5038338;28;20024;-73
2023/04/10 21:07:19;;;;;;;10.88;3.60;;;;;;;10.17;100.00;100708.06;5046214;28;20476;-73
2023/04/10 21:09:44;;;;;;;9.35;3.45;;;;;;;10.15;100.00;100700.16;5042668;28;20029;-71
2023/04/10 21:12:10;;;;;;;10.70;3.80;;;;;;;10.15;100.00;100707.47;5052643;28;20029;-70
2023/04/10 21:14:35;;;;;;;12.77;4.38;;;;;;;10.16;100.00;100719.91;5037920;28;20075;-72
2023/04/10 21:17:01;;;;;;;10.52;3.80;;;;;;;10.07;100.00;100717.53;5056050;28;20040;-70
2023/04/10 21:19:26;;;;;;;10.65;3.90;;;;;;;10.11;100.00;100721.44;5055827;28;20036;-72
2023/04/10 21:21:52;;;;;;;10.68;3.75;;;;;;;10.09;100.00;100704.59;5036539;28;20032;-74
2023/04/10 21:24:17;;;;;;;9.98;3.97;;;;;;;10.05;100.00;100703.38;5038027;28;20037;-72
2023/04/10 21:26:42;;;;;;;12.02;4.10;;;;;;;10.06;100.00;100696.94;5051838;28;20060;-70
2023/04/10 21:29:08;;;;;;;15.73;4.93;;;;;;;10.05;100.00;100700.69;5017916;28;20030;-72
2023/04/10 21:31:34;;;;;;;11.07;4.10;;;;;;;10.07;100.00;100706.72;5036075;28;20041;-71
2023/04/10 21:34:02;;;;;;;10.18;4.03;;;;;;;10.03;100.00;100693.88;5033961;28;20040;-70
2023/04/10 21:36:31;;;;;;;13.10;4.38;;;;;;;10.01;100.00;100680.56;5037432;28;20083;-70
2023/04/10 21:39:01;;;;;;;14.27;4.15;;;;;;;9.99;100.00;100698.88;5036845;28;20055;-71
2023/04/10 21:41:31;;;;;;;14.38;4.40;;;;;;;9.99;100.00;100725.91;5035227;28;20459;-71
2023/04/10 21:44:00;;;;;;;16.88;4.30;;;;;;;9.94;100.00;100717.66;5037468;28;20021;-71
2023/04/10 21:46:26;;;;;;;11.35;3.85;;;;;;;9.93;100.00;100716.84;5037321;28;20033;-70
2023/04/10 21:48:51;;;;;;;9.18;3.60;;;;;;;9.91;100.00;100715.41;5036225;28;20519;-71
2023/04/10 21:51:17;;;;;;;11.75;4.03;;;;;;;9.91;100.00;100705.41;5036979;28;20067;-71
2023/04/10 21:53:42;;;;;;;9.85;3.97;;;;;;;9.90;100.00;100701.06;5037464;28;20476;-70
2023/04/10 21:56:08;;;;;;;12.32;4.10;;;;;;;9.90;100.00;100689.41;5041615;28;20026;-71
2023/04/10 21:58:35;;;;;;;13.75;3.90;;;;;;;9.90;100.00;100695.66;5017294;28;20392;-70
2023/04/10 22:01:02;;;;;;;14.02;4.03;;;;;;;9.87;100.00;100693.41;5015189;28;20025;-70
2023/04/10 22:03:27;;;;;;;13.57;4.00;;;;;;;9.90;100.00;100689.41;5030717;28;20037;-71
2023/04/10 22:06:03;;;;;;;13.50;4.65;;;;;;;9.87;100.00;100688.00;5037251;28;20029;-73
2023/04/10 22:08:33;;;;;;;14.90;4.30;;;;;;;9.90;100.00;100686.72;5036441;28;20036;-71
2023/04/10 22:11:02;;;;;;;14.68;4.53;;;;;;;9.89;100.00;100690.50;5033470;28;20079;-70
2023/04/10 22:13:29;;;;;;;12.00;3.92;;;;;;;9.91;100.00;100680.28;5034739;28;20448;-70
2023/04/10 22:15:55;;;;;;;11.95;4.20;;;;;;;9.91;100.00;100704.59;5036270;28;20083;-70
2023/04/10 22:18:20;;;;;;;13.93;4.30;;;;;;;9.94;100.00;100701.44;5049881;28;20032;-70
2023/04/10 22:20:45;;;;;;;18.50;4.80;;;;;;;9.90;100.00;100701.06;5052094;28;20025;-71
2023/04/10 22:23:11;;;;;;;12.07;4.10;;;;;;;9.95;100.00;100697.69;5044031;28;20029;-70
2023/04/10 22:25:36;;;;;;;14.85;4.95;;;;;;;9.96;100.00;100707.44;5035077;28;20037;-71
2023/04/10 22:28:01;;;;;;;14.10;4.25;;;;;;;9.99;100.00;100703.47;5052767;28;20053;-70
2023/04/10 22:30:27;;;;;;;16.05;4.47;;;;;;;9.95;100.00;100711.22;5053401;28;20464;-70
2023/04/10 22:32:56;;;;;;;16.25;4.45;;;;;;;9.94;100.00;100706.84;5035453;28;20075;-71
2023/04/10 22:35:22;;;;;;;18.08;5.07;;;;;;;9.97;100.00;100703.69;5053421;28;20036;-70
2023/04/10 22:37:47;;;;;;;13.82;3.92;;;;;;;9.96;100.00;100696.63;5042934;28;20029;-70
2023/04/10 22:40:12;;;;;;;18.23;4.43;;;;;;;9.96;100.00;100683.13;5054136;28;20048;-71
2023/04/10 22:42:38;;;;;;;19.58;4.95;;;;;;;9.94;100.00;100674.41;5043697;28;20025;-70
2023/04/10 22:45:03;;;;;;;17.67;4.60;;;;;;;9.95;100.00;100678.78;5016483;28;20025;-70
2023/04/10 22:47:29;;;;;;;20.42;4.68;;;;;;;9.97;100.00;100684.78;5044715;28;20111;-70
2023/04/10 22:49:54;;;;;;;15.73;4.45;;;;;;;9.91;100.00;100680.28;5054613;28;20029;-70
2023/04/10 22:52:20;;;;;;;17.65;4.47;;;;;;;9.88;100.00;100675.31;5034492;28;20055;-70